createdAt,value
2019-01-13T00:00:51.774Z,13.17
2019-01-13T00:03:18.772Z,13.67
2019-01-13T00:05:45.697Z,14.43
2019-01-13T00:08:12.645Z,11.23
2019-01-13T00:10:39.552Z,9.73
2019-01-13T00:13:06.704Z,11.43
2019-01-13T00:15:33.626Z,9.17
2019-01-13T00:18:00.615Z,28.90
2019-01-13T00:20:27.531Z,9.40
2019-01-13T00:22:54.507Z,22.57
2019-01-13T00:25:21.446Z,13.63
2019-01-13T00:27:48.405Z,10.03
2019-01-13T00:30:19.357Z,10.17
2019-01-13T00:32:44.391Z,12.33
2019-01-13T00:35:11.328Z,17.23
2019-01-13T00:37:38.293Z,16.00
2019-01-13T00:40:09.123Z,14.03
2019-01-13T00:42:36.059Z,15.40
2019-01-13T00:45:04.092Z,13.40
2019-01-13T00:47:31.002Z,12.57
2019-01-13T00:49:57.980Z,13.63
2019-01-13T00:52:24.906Z,13.63
2019-01-13T00:54:51.877Z,14.10
2019-01-13T00:57:18.798Z,10.33
2019-01-13T00:59:45.778Z,8.57
2019-01-13T01:02:12.708Z,14.30
2019-01-13T01:04:39.712Z,25.33
2019-01-13T01:07:06.646Z,16.63
2019-01-13T01:09:33.601Z,16.77
2019-01-13T01:12:00.548Z,17.73
2019-01-13T01:14:27.500Z,22.00
2019-01-13T01:16:54.411Z,13.57
2019-01-13T01:19:21.351Z,15.77
2019-01-13T01:21:48.248Z,14.90
2019-01-13T01:24:15.234Z,11.00
2019-01-13T01:26:42.136Z,18.57
2019-01-13T01:29:09.138Z,25.17
2019-01-13T01:31:36.042Z,13.87
2019-01-13T01:34:03.224Z,11.43
2019-01-13T01:36:30.129Z,17.00
2019-01-13T01:38:57.072Z,22.30
2019-01-13T01:41:24.029Z,14.20
2019-01-13T01:43:50.980Z,29.13
2019-01-13T01:46:17.891Z,18.80
2019-01-13T01:48:45.085Z,18.53
2019-01-13T01:51:11.992Z,12.23
2019-01-13T01:53:38.978Z,14.40
2019-01-13T01:56:05.886Z,14.40
2019-01-13T01:58:32.872Z,18.03
2019-01-13T02:00:59.815Z,23.13
2019-01-13T02:03:26.757Z,14.50
2019-01-13T02:05:53.730Z,23.50
2019-01-13T02:08:20.691Z,16.50
2019-01-13T02:10:47.684Z,19.43
2019-01-13T02:13:14.601Z,19.43
2019-01-13T02:15:41.531Z,14.67
2019-01-13T02:18:08.454Z,15.47
2019-01-13T02:20:35.408Z,11.87
2019-01-13T02:23:02.542Z,11.83
2019-01-13T02:25:29.511Z,18.33
2019-01-13T02:27:56.431Z,24.60
2019-01-13T02:30:24.853Z,17.43
2019-01-13T02:32:51.796Z,18.60
2019-01-13T02:35:18.731Z,20.10
2019-01-13T02:37:45.648Z,17.27
2019-01-13T02:40:14.769Z,19.97
2019-01-13T02:42:41.688Z,21.97
2019-01-13T02:45:14.976Z,21.57
2019-01-13T02:47:41.926Z,21.83
2019-01-13T02:50:09.412Z,15.40
2019-01-13T02:52:36.351Z,23.97
2019-01-13T02:55:03.924Z,25.13
2019-01-13T02:57:30.835Z,23.73
2019-01-13T02:59:57.838Z,27.63
2019-01-13T03:02:24.760Z,18.63
2019-01-13T03:04:51.706Z,18.07
2019-01-13T03:07:18.648Z,21.90
2019-01-13T03:09:45.608Z,22.40
2019-01-13T03:12:12.521Z,20.47
2019-01-13T03:14:39.492Z,22.43
2019-01-13T03:17:06.402Z,14.00
2019-01-13T03:19:33.426Z,22.43
2019-01-13T03:22:00.428Z,14.50
2019-01-13T03:24:27.341Z,23.67
2019-01-13T03:26:54.292Z,15.90
2019-01-13T03:29:21.199Z,22.60
2019-01-13T03:31:48.196Z,19.43
2019-01-13T03:34:15.109Z,19.63
2019-01-13T03:36:42.044Z,16.60
2019-01-13T03:39:08.950Z,23.83
2019-01-13T03:41:36.099Z,22.97
2019-01-13T03:44:03.068Z,21.70
2019-01-13T03:46:29.970Z,23.10
2019-01-13T03:48:56.915Z,20.10
2019-01-13T03:51:23.840Z,27.30
2019-01-13T03:53:50.751Z,21.47
2019-01-13T03:56:17.700Z,24.60
2019-01-13T03:58:44.696Z,24.07
2019-01-13T04:01:18.391Z,20.40
2019-01-13T04:03:40.513Z,30.63
2019-01-13T04:06:07.489Z,31.60
2019-01-13T04:08:34.372Z,23.30
2019-01-13T04:11:01.343Z,22.10
2019-01-13T04:13:28.246Z,30.83
2019-01-13T04:15:59.286Z,28.93
2019-01-13T04:18:26.212Z,22.20
2019-01-13T04:20:53.133Z,28.37
2019-01-13T04:23:20.084Z,30.20
2019-01-13T04:25:46.990Z,30.97
2019-01-13T04:28:13.914Z,23.33
2019-01-13T04:30:40.828Z,28.00
2019-01-13T04:33:07.797Z,25.80
2019-01-13T04:35:34.663Z,29.70
2019-01-13T04:38:01.584Z,28.50
2019-01-13T04:40:28.518Z,31.03
2019-01-13T04:42:55.451Z,24.03
2019-01-13T04:45:22.370Z,28.63
2019-01-13T04:47:49.319Z,27.00
2019-01-13T04:50:16.230Z,23.70
2019-01-13T04:52:43.165Z,26.93
2019-01-13T04:55:10.106Z,25.47
2019-01-13T04:57:37.055Z,29.50
2019-01-13T05:00:07.362Z,28.33
2019-01-13T05:02:34.311Z,25.37
2019-01-13T05:05:01.233Z,23.77
2019-01-13T05:07:28.527Z,26.40
2019-01-13T05:09:55.433Z,21.57
2019-01-13T05:12:22.375Z,24.23
2019-01-13T05:14:49.285Z,22.33
2019-01-13T05:17:16.196Z,19.20
2019-01-13T05:19:43.077Z,22.10
2019-01-13T05:22:10.021Z,19.93
2019-01-13T05:24:36.901Z,19.73
2019-01-13T05:27:03.842Z,25.90
2019-01-13T05:29:30.720Z,19.40
2019-01-13T05:31:57.664Z,18.03
2019-01-13T05:34:24.571Z,23.37
2019-01-13T05:36:51.460Z,17.57
2019-01-13T05:39:18.380Z,17.03
2019-01-13T05:41:45.272Z,20.37
2019-01-13T05:44:12.197Z,15.97
2019-01-13T05:46:39.123Z,19.10
2019-01-13T05:49:06.066Z,22.50
2019-01-13T05:51:32.958Z,21.33
2019-01-13T05:53:59.893Z,20.57
2019-01-13T05:56:26.820Z,21.73
2019-01-13T05:58:53.764Z,19.70
2019-01-13T06:01:20.656Z,21.93
2019-01-13T06:03:47.587Z,21.27
2019-01-13T06:06:14.489Z,24.00
2019-01-13T06:08:41.411Z,23.97
2019-01-13T06:11:08.357Z,20.33
2019-01-13T06:13:35.333Z,22.17
2019-01-13T06:16:02.210Z,25.83
2019-01-13T06:18:29.144Z,23.43
2019-01-13T06:20:56.042Z,23.53
2019-01-13T06:23:22.963Z,23.10
2019-01-13T06:25:49.854Z,29.67
2019-01-13T06:28:16.839Z,26.47
2019-01-13T06:30:43.746Z,25.87
2019-01-13T06:33:10.681Z,27.20
2019-01-13T06:35:37.589Z,27.50
2019-01-13T06:38:06.183Z,21.93
2019-01-13T06:40:33.342Z,28.67
2019-01-13T06:43:00.257Z,25.00
2019-01-13T06:45:27.170Z,26.77
2019-01-13T06:47:54.175Z,24.13
2019-01-13T06:50:21.268Z,22.43
2019-01-13T06:52:48.217Z,21.90
2019-01-13T06:55:15.157Z,22.70
2019-01-13T06:57:42.072Z,19.20
2019-01-13T07:00:21.438Z,20.60
2019-01-13T07:02:48.328Z,17.37
2019-01-13T07:05:15.261Z,18.47
2019-01-13T07:07:42.175Z,18.90
2019-01-13T07:10:09.462Z,16.63
2019-01-13T07:12:36.364Z,17.53
2019-01-13T07:15:05.459Z,15.70
2019-01-13T07:17:32.346Z,15.70
2019-01-13T07:19:59.316Z,17.13
2019-01-13T07:22:26.209Z,15.97
2019-01-13T07:24:53.199Z,19.07
2019-01-13T07:27:20.165Z,20.17
2019-01-13T07:29:47.094Z,22.50
2019-01-13T07:32:13.997Z,20.03
2019-01-13T07:34:40.931Z,21.43
2019-01-13T07:37:07.884Z,20.07
2019-01-13T07:39:34.814Z,21.40
2019-01-13T07:42:01.827Z,20.03
2019-01-13T07:44:28.762Z,22.67
2019-01-13T07:46:55.665Z,24.87
2019-01-13T07:49:22.591Z,22.83
2019-01-13T07:51:49.998Z,21.30
2019-01-13T07:54:16.931Z,24.00
2019-01-13T07:56:43.817Z,23.13
2019-01-13T07:59:10.757Z,21.97
2019-01-13T08:01:37.644Z,24.40
2019-01-13T08:04:04.887Z,20.87
2019-01-13T08:06:31.803Z,23.90
2019-01-13T08:08:58.750Z,20.50
2019-01-13T08:11:25.722Z,24.40
2019-01-13T08:13:52.740Z,21.83
2019-01-13T08:16:19.656Z,20.20
2019-01-13T08:18:46.666Z,19.13
2019-01-13T08:21:13.593Z,19.30
2019-01-13T08:23:40.482Z,23.97
2019-01-13T08:26:07.407Z,21.40
2019-01-13T08:28:34.315Z,22.90
2019-01-13T08:31:01.343Z,20.40
2019-01-13T08:33:28.229Z,17.20
2019-01-13T08:35:55.160Z,21.37
2019-01-13T08:38:22.288Z,17.83
2019-01-13T08:40:49.219Z,13.87
2019-01-13T08:43:16.125Z,15.70
2019-01-13T08:45:50.107Z,15.73
2019-01-13T08:48:12.717Z,18.70
2019-01-13T08:50:39.641Z,15.37
2019-01-13T08:53:06.597Z,14.10
2019-01-13T08:55:33.517Z,14.13
2019-01-13T08:58:00.469Z,15.23
2019-01-13T09:00:32.032Z,12.50
2019-01-13T09:02:58.993Z,13.70
2019-01-13T09:05:26.527Z,12.50
2019-01-13T09:07:53.533Z,12.93
2019-01-13T09:10:20.821Z,13.70
2019-01-13T09:12:47.758Z,8.83
2019-01-13T09:15:16.510Z,7.13
2019-01-13T09:17:43.760Z,12.20
2019-01-13T09:20:16.641Z,10.30
2019-01-13T09:22:43.603Z,9.63
2019-01-13T09:25:10.522Z,12.07
2019-01-13T09:27:37.437Z,9.10
2019-01-13T09:30:07.712Z,8.63
2019-01-13T09:32:39.392Z,9.10
2019-01-13T09:35:04.282Z,10.63
2019-01-13T09:37:31.192Z,10.93
2019-01-13T09:39:58.067Z,7.17
2019-01-13T09:42:24.983Z,9.47
2019-01-13T09:44:51.853Z,7.57
2019-01-13T09:47:18.784Z,10.83
2019-01-13T09:49:49.880Z,9.20
2019-01-13T09:52:14.519Z,8.63
2019-01-13T09:54:41.414Z,7.00
2019-01-13T09:57:08.394Z,7.33
2019-01-13T09:59:35.305Z,6.50
2019-01-13T10:02:02.261Z,5.73
2019-01-13T10:04:29.163Z,5.40
2019-01-13T10:06:56.077Z,6.07
2019-01-13T10:09:22.985Z,9.50
2019-01-13T10:11:49.920Z,4.23
2019-01-13T10:14:16.817Z,3.80
2019-01-13T10:16:43.728Z,3.47
2019-01-13T10:19:10.685Z,6.10
2019-01-13T10:21:37.620Z,5.27
2019-01-13T10:24:04.530Z,3.93
2019-01-13T10:26:31.464Z,3.67
2019-01-13T10:28:58.375Z,4.57
2019-01-13T10:31:25.315Z,2.63
2019-01-13T10:33:52.203Z,3.80
2019-01-13T10:36:19.145Z,3.60
2019-01-13T10:38:46.056Z,2.90
2019-01-13T10:41:13.010Z,2.80
2019-01-13T10:43:39.952Z,2.80
2019-01-13T10:46:06.840Z,3.97
2019-01-13T10:48:33.764Z,3.20
2019-01-13T10:51:00.673Z,3.70
2019-01-13T10:53:27.612Z,4.07
2019-01-13T10:55:55.548Z,3.10
2019-01-13T10:58:22.676Z,3.27
2019-01-13T11:00:49.586Z,2.67
2019-01-13T11:03:16.512Z,2.83
2019-01-13T11:05:43.443Z,2.73
2019-01-13T11:08:11.733Z,5.43
2019-01-13T11:10:38.885Z,4.97
2019-01-13T11:13:05.809Z,3.40
2019-01-13T11:15:32.681Z,2.60
2019-01-13T11:17:59.591Z,5.53
2019-01-13T11:20:37.469Z,3.47
2019-01-13T11:23:04.950Z,2.63
2019-01-13T11:25:31.857Z,2.97
2019-01-13T11:27:58.827Z,2.30
2019-01-13T11:30:26.132Z,2.80
2019-01-13T11:32:53.162Z,3.30
2019-01-13T11:35:20.061Z,4.00
2019-01-13T11:37:47.256Z,2.50
2019-01-13T11:40:19.602Z,3.00
2019-01-13T11:42:46.537Z,2.23
2019-01-13T11:45:13.548Z,3.40
2019-01-13T11:47:40.493Z,2.50
2019-01-13T11:50:10.443Z,2.27
2019-01-13T11:52:37.356Z,3.47
2019-01-13T11:55:05.658Z,3.90
2019-01-13T11:57:32.572Z,3.00
2019-01-13T11:59:59.520Z,6.03
2019-01-13T12:02:32.547Z,3.77
2019-01-13T12:04:55.309Z,6.30
2019-01-13T12:07:22.251Z,7.87
2019-01-13T12:09:49.170Z,10.70
2019-01-13T12:12:16.076Z,9.33
2019-01-13T12:14:43.355Z,3.00
2019-01-13T12:17:10.246Z,5.13
2019-01-13T12:19:37.179Z,3.10
2019-01-13T12:22:04.067Z,3.30
2019-01-13T12:24:30.987Z,2.67
2019-01-13T12:26:57.931Z,2.57
2019-01-13T12:29:24.877Z,2.37
2019-01-13T12:31:51.767Z,2.00
2019-01-13T12:34:18.703Z,6.20
2019-01-13T12:36:45.617Z,2.20
2019-01-13T12:39:13.933Z,2.70
2019-01-13T12:41:40.841Z,1.77
2019-01-13T12:44:07.786Z,1.80
2019-01-13T12:46:34.661Z,2.10
2019-01-13T12:49:01.569Z,1.93
2019-01-13T12:51:28.455Z,1.90
2019-01-13T12:53:55.394Z,1.70
2019-01-13T12:56:22.340Z,1.90
2019-01-13T12:58:49.300Z,1.40
2019-01-13T13:01:16.214Z,1.97
2019-01-13T13:03:43.134Z,1.57
2019-01-13T13:06:10.019Z,1.90
2019-01-13T13:08:37.018Z,1.63
2019-01-13T13:11:04.022Z,2.90
2019-01-13T13:13:30.985Z,1.30
2019-01-13T13:15:57.888Z,1.10
2019-01-13T13:18:24.790Z,1.83
2019-01-13T13:20:51.735Z,2.93
2019-01-13T13:23:18.616Z,1.37
2019-01-13T13:25:45.519Z,1.77
2019-01-13T13:28:12.406Z,2.17
2019-01-13T13:30:39.347Z,2.27
2019-01-13T13:33:06.425Z,1.77
2019-01-13T13:35:39.743Z,2.00
2019-01-13T13:38:02.134Z,2.00
2019-01-13T13:40:29.060Z,3.97
2019-01-13T13:42:55.949Z,3.57
2019-01-13T13:45:22.863Z,2.03
2019-01-13T13:47:50.447Z,2.90
2019-01-13T13:50:20.332Z,2.80
2019-01-13T13:52:47.427Z,2.90
2019-01-13T13:55:14.482Z,2.33
2019-01-13T13:57:41.375Z,1.63
2019-01-13T14:00:12.518Z,2.30
2019-01-13T14:02:39.394Z,1.30
2019-01-13T14:05:06.585Z,1.47
2019-01-13T14:07:33.497Z,2.30
2019-01-13T14:10:00.499Z,1.83
2019-01-13T14:12:27.397Z,1.90
2019-01-13T14:14:54.331Z,1.83
2019-01-13T14:17:21.248Z,2.90
2019-01-13T14:19:48.289Z,2.23
2019-01-13T14:22:15.202Z,2.03
2019-01-13T14:24:42.113Z,3.70
2019-01-13T14:27:09.062Z,2.17
2019-01-13T14:29:35.941Z,1.70
2019-01-13T14:32:02.953Z,2.10
2019-01-13T14:34:29.830Z,1.60
2019-01-13T14:36:56.738Z,1.63
2019-01-13T14:39:23.629Z,2.40
2019-01-13T14:41:50.588Z,1.73
2019-01-13T14:44:17.478Z,3.93
2019-01-13T14:46:44.416Z,1.90
2019-01-13T14:49:11.322Z,3.00
2019-01-13T14:51:38.303Z,1.57
2019-01-13T14:54:05.200Z,2.63
2019-01-13T14:56:32.144Z,2.40
2019-01-13T14:58:59.098Z,2.13
2019-01-13T15:01:26.002Z,2.10
2019-01-13T15:03:59.748Z,2.73
2019-01-13T15:06:23.212Z,1.90
2019-01-13T15:08:50.116Z,3.03
2019-01-13T15:11:17.034Z,2.43
2019-01-13T15:13:43.964Z,6.63
2019-01-13T15:16:10.923Z,2.97
2019-01-13T15:18:37.855Z,5.80
2019-01-13T15:21:04.832Z,3.00
2019-01-13T15:23:31.835Z,3.10
2019-01-13T15:25:58.834Z,3.10
2019-01-13T15:28:26.392Z,2.53
2019-01-13T15:30:53.440Z,2.33
2019-01-13T15:33:20.429Z,5.17
2019-01-13T15:35:47.334Z,3.20
2019-01-13T15:38:14.245Z,2.83
2019-01-13T15:40:41.134Z,4.60
2019-01-13T15:43:08.182Z,3.90
2019-01-13T15:45:35.100Z,2.27
2019-01-13T15:48:02.114Z,3.57
2019-01-13T15:50:29.590Z,7.33
2019-01-13T15:52:56.620Z,6.23
2019-01-13T15:55:24.853Z,7.60
2019-01-13T15:57:52.050Z,8.00
2019-01-13T16:00:24.512Z,5.90
2019-01-13T16:02:51.563Z,5.27
2019-01-13T16:05:18.526Z,5.60
2019-01-13T16:07:45.521Z,6.90
2019-01-13T16:10:14.877Z,9.03
2019-01-13T16:12:41.790Z,5.40
2019-01-13T16:15:09.352Z,10.47
2019-01-13T16:17:36.260Z,10.67
2019-01-13T16:20:06.041Z,9.10
2019-01-13T16:22:32.956Z,16.27
2019-01-13T16:24:59.861Z,11.97
2019-01-13T16:27:26.819Z,11.93
2019-01-13T16:29:53.742Z,10.77
2019-01-13T16:32:20.658Z,17.03
2019-01-13T16:34:47.565Z,15.30
2019-01-13T16:37:14.494Z,12.97
2019-01-13T16:39:41.406Z,9.20
2019-01-13T16:42:08.354Z,13.53
2019-01-13T16:44:35.243Z,13.83
2019-01-13T16:47:02.162Z,9.60
2019-01-13T16:49:29.053Z,14.50
2019-01-13T16:51:55.998Z,9.60
2019-01-13T16:54:22.874Z,14.83
2019-01-13T16:56:49.749Z,13.83
2019-01-13T16:59:16.726Z,13.10
2019-01-13T17:01:43.612Z,16.07
2019-01-13T17:04:10.558Z,13.47
2019-01-13T17:06:37.439Z,14.17
2019-01-13T17:09:08.127Z,12.23
2019-01-13T17:11:35.374Z,12.20
2019-01-13T17:14:02.287Z,7.83
2019-01-13T17:16:29.283Z,15.97
2019-01-13T17:18:56.233Z,8.00
2019-01-13T17:21:23.135Z,11.37
2019-01-13T17:23:50.093Z,10.10
2019-01-13T17:26:17.242Z,6.27
2019-01-13T17:28:44.201Z,7.80
2019-01-13T17:31:11.128Z,13.97
2019-01-13T17:33:38.062Z,14.80
2019-01-13T17:36:04.973Z,16.27
2019-01-13T17:38:31.887Z,5.20
2019-01-13T17:40:58.804Z,8.07
2019-01-13T17:43:25.749Z,10.97
2019-01-13T17:45:52.632Z,9.80
2019-01-13T17:48:19.590Z,10.97
2019-01-13T17:50:46.485Z,9.93
2019-01-13T17:53:13.611Z,7.60
2019-01-13T17:55:40.574Z,11.07
2019-01-13T17:58:08.654Z,8.07
2019-01-13T18:00:42.085Z,9.67
2019-01-13T18:03:10.505Z,10.60
2019-01-13T18:05:37.507Z,12.57
2019-01-13T18:08:04.541Z,9.13
2019-01-13T18:10:31.822Z,8.60
2019-01-13T18:12:58.739Z,4.53
2019-01-13T18:15:25.716Z,13.43
2019-01-13T18:17:53.133Z,3.93
2019-01-13T18:20:20.118Z,9.43
2019-01-13T18:22:47.325Z,4.23
2019-01-13T18:25:14.268Z,9.67
2019-01-13T18:27:41.174Z,11.63
2019-01-13T18:30:12.288Z,6.60
2019-01-13T18:32:39.197Z,6.30
2019-01-13T18:35:08.376Z,8.93
2019-01-13T18:37:35.416Z,9.60
2019-01-13T18:40:03.049Z,16.20
2019-01-13T18:42:29.940Z,12.37
2019-01-13T18:44:56.883Z,10.13
2019-01-13T18:47:23.817Z,6.70
2019-01-13T18:49:50.763Z,3.90
2019-01-13T18:52:17.679Z,3.20
2019-01-13T18:54:44.626Z,4.13
2019-01-13T18:57:11.522Z,9.27
2019-01-13T18:59:38.609Z,9.53
2019-01-13T19:02:05.695Z,17.80
2019-01-13T19:04:32.622Z,6.10
2019-01-13T19:06:59.548Z,6.10
2019-01-13T19:09:26.554Z,14.20
2019-01-13T19:11:53.494Z,12.57
2019-01-13T19:14:33.246Z,7.23
2019-01-13T19:17:05.578Z,15.30
2019-01-13T19:20:01.141Z,5.20
2019-01-13T19:22:29.709Z,13.73
2019-01-13T19:24:59.460Z,8.83
2019-01-13T19:27:26.363Z,10.20
2019-01-13T19:29:53.440Z,7.90
2019-01-13T19:32:20.347Z,10.83
2019-01-13T19:34:47.270Z,15.97
2019-01-13T19:37:14.210Z,12.87
2019-01-13T19:39:41.218Z,9.03
2019-01-13T19:42:08.158Z,15.47
2019-01-13T19:44:35.081Z,19.40
2019-01-13T19:47:02.012Z,13.53
2019-01-13T19:49:28.959Z,9.23
2019-01-13T19:51:55.915Z,10.73
2019-01-13T19:54:22.813Z,3.80
2019-01-13T19:56:49.760Z,6.47
2019-01-13T19:59:16.700Z,3.07
2019-01-13T20:01:43.639Z,1.53
2019-01-13T20:04:10.542Z,4.60
2019-01-13T20:06:37.539Z,6.10
2019-01-13T20:09:08.166Z,13.13
2019-01-13T20:11:35.109Z,2.80
2019-01-13T20:14:02.025Z,5.23
2019-01-13T20:16:28.971Z,3.90
2019-01-13T20:18:55.879Z,6.73
2019-01-13T20:21:22.812Z,5.40
2019-01-13T20:23:49.720Z,2.27
2019-01-13T20:26:16.676Z,3.90
2019-01-13T20:28:43.571Z,11.60
2019-01-13T20:31:10.522Z,9.43
2019-01-13T20:33:37.433Z,7.50
2019-01-13T20:36:04.365Z,11.47
2019-01-13T20:38:31.253Z,9.37
2019-01-13T20:40:58.241Z,9.73
2019-01-13T20:43:25.129Z,12.13
2019-01-13T20:45:52.059Z,10.70
2019-01-13T20:48:18.960Z,12.30
2019-01-13T20:50:45.863Z,12.57
2019-01-13T20:53:12.802Z,10.20
2019-01-13T20:55:39.698Z,10.43
2019-01-13T20:58:06.653Z,13.40
2019-01-13T21:00:33.588Z,6.83
2019-01-13T21:03:00.520Z,14.73
2019-01-13T21:05:27.456Z,11.63
2019-01-13T21:07:54.401Z,11.83
2019-01-13T21:10:21.434Z,3.30
2019-01-13T21:12:48.478Z,10.33
2019-01-13T21:15:21.515Z,13.43
2019-01-13T21:17:48.442Z,8.50
2019-01-13T21:20:15.356Z,11.53
2019-01-13T21:22:42.289Z,13.33
2019-01-13T21:25:11.049Z,16.97
2019-01-13T21:27:38.387Z,9.47
2019-01-13T21:30:09.800Z,11.47
2019-01-13T21:32:36.774Z,12.70
2019-01-13T21:35:04.288Z,17.47
2019-01-13T21:37:31.230Z,13.37
2019-01-13T21:39:58.155Z,12.53
2019-01-13T21:42:25.199Z,12.97
2019-01-13T21:44:52.072Z,11.07
2019-01-13T21:47:19.000Z,8.87
2019-01-13T21:49:45.966Z,7.70
2019-01-13T21:52:13.045Z,14.83
2019-01-13T21:54:40.122Z,9.70
2019-01-13T21:57:07.023Z,14.40
2019-01-13T21:59:34.717Z,10.30
2019-01-13T22:02:01.707Z,9.60
2019-01-13T22:04:28.973Z,11.20
2019-01-13T22:06:56.140Z,25.67
2019-01-13T22:09:23.280Z,14.80
2019-01-13T22:11:50.213Z,9.00
2019-01-13T22:14:17.282Z,16.83
2019-01-13T22:16:44.207Z,7.73
2019-01-13T22:19:11.156Z,12.80
2019-01-13T22:21:38.080Z,8.60
2019-01-13T22:24:05.023Z,11.50
2019-01-13T22:26:31.912Z,14.00
2019-01-13T22:28:58.860Z,13.00
2019-01-13T22:31:26.277Z,12.70
2019-01-13T22:33:53.217Z,16.70
2019-01-13T22:36:20.168Z,6.70
2019-01-13T22:38:47.077Z,14.10
2019-01-13T22:41:14.033Z,8.50
2019-01-13T22:43:41.002Z,14.27
2019-01-13T22:46:07.938Z,16.23
2019-01-13T22:48:34.873Z,12.90
2019-01-13T22:51:01.920Z,7.50
2019-01-13T22:53:28.859Z,9.27
2019-01-13T22:55:55.788Z,17.80
2019-01-13T22:58:22.691Z,8.40
2019-01-13T23:01:17.179Z,8.20
2019-01-13T23:03:44.197Z,9.13
2019-01-13T23:06:11.104Z,12.17
2019-01-13T23:08:38.268Z,10.10
2019-01-13T23:11:05.165Z,12.87
2019-01-13T23:13:32.110Z,10.53
2019-01-13T23:15:59.027Z,12.37
2019-01-13T23:18:25.930Z,12.77
2019-01-13T23:20:52.937Z,18.80
2019-01-13T23:23:19.877Z,12.30
2019-01-13T23:25:46.801Z,17.23
2019-01-13T23:28:13.718Z,11.33
2019-01-13T23:30:40.691Z,12.10
2019-01-13T23:33:07.661Z,19.23
2019-01-13T23:35:34.598Z,8.83
2019-01-13T23:38:01.492Z,15.97
2019-01-13T23:40:28.458Z,5.70
2019-01-13T23:42:55.478Z,11.23
2019-01-13T23:45:22.432Z,14.43
2019-01-13T23:47:49.333Z,16.27
2019-01-13T23:50:16.309Z,9.80
2019-01-13T23:52:43.298Z,14.33
2019-01-13T23:55:10.834Z,9.70
2019-01-13T23:57:37.842Z,16.07
